Time;durP1;ratioP1;P1;durP2;ratioP2;P2;SDS_P1;SDS_P2;PMS_P1;PMS_P2;Temp;Humidity;BMP_temperature;BMP_pressure;BME280_temperature;BME280_humidity;BME280_pressure;Samples;Min_cycle;Max_cycle;Signal;HPM_P1;HPM_P2
2024/01/20 00:01:59;;;;;;;25.37;12.00;;;;;;;7.27;51.43;102649.75;5033335;28;20033;-73
2024/01/20 00:04:24;;;;;;;28.77;12.50;;;;;;;6.48;53.51;102632.34;5041296;28;20060;-73
2024/01/20 00:06:50;;;;;;;27.73;12.80;;;;;;;5.88;54.94;102649.13;5049982;28;20387;-73
2024/01/20 00:09:16;;;;;;;29.50;13.47;;;;;;;5.84;56.16;102642.97;5040726;28;20013;-73
2024/01/20 00:11:41;;;;;;;22.73;11.47;;;;;;;7.28;51.97;102638.53;5041128;28;20083;-73
2024/01/20 00:14:06;;;;;;;32.23;13.77;;;;;;;6.87;52.67;102645.84;5038107;28;20027;-73
2024/01/20 00:16:32;;;;;;;26.33;10.40;;;;;;;6.99;50.58;102647.94;5048032;28;20021;-73
2024/01/20 00:18:57;;;;;;;30.43;11.93;;;;;;;6.94;51.73;102650.41;5044839;28;20461;-73
2024/01/20 00:21:23;;;;;;;28.93;11.40;;;;;;;6.06;54.12;102649.00;5048866;28;20506;-74
2024/01/20 00:23:49;;;;;;;25.70;12.60;;;;;;;6.22;53.85;102651.34;5048325;28;20213;-73
2024/01/20 00:26:15;;;;;;;27.90;11.07;;;;;;;6.74;51.76;102651.44;5043036;28;20092;-73
2024/01/20 00:28:40;;;;;;;31.37;12.40;;;;;;;6.79;52.29;102655.09;5037474;28;20172;-73
2024/01/20 00:31:05;;;;;;;39.93;11.93;;;;;;;6.25;53.04;102654.06;5043773;28;20029;-73
2024/01/20 00:33:31;;;;;;;28.07;9.60;;;;;;;5.81;55.48;102663.59;5043321;28;20055;-73
2024/01/20 00:35:56;;;;;;;36.37;13.17;;;;;;;6.26;55.03;102658.44;5038561;28;20558;-73
2024/01/20 00:38:22;;;;;;;28.10;11.90;;;;;;;5.79;56.13;102654.88;5048939;28;20028;-73
2024/01/20 00:40:47;;;;;;;40.50;12.20;;;;;;;5.92;55.68;102657.13;5046074;28;20016;-73
2024/01/20 00:43:13;;;;;;;24.97;11.37;;;;;;;6.43;52.93;102650.38;5049618;28;20427;-73
2024/01/20 00:45:39;;;;;;;33.87;11.07;;;;;;;5.57;55.68;102654.00;5041717;28;20611;-73
2024/01/20 00:48:05;;;;;;;28.47;10.93;;;;;;;6.92;52.21;102652.09;5035756;28;20120;-73
2024/01/20 00:50:30;;;;;;;24.90;9.20;;;;;;;6.22;53.27;102659.13;5037120;28;20078;-73
2024/01/20 00:52:55;;;;;;;19.87;9.30;;;;;;;5.65;55.90;102658.66;5030490;28;20088;-72
2024/01/20 00:55:21;;;;;;;34.87;13.13;;;;;;;6.42;53.75;102657.25;5044290;28;20440;-73
2024/01/20 00:57:46;;;;;;;37.80;13.03;;;;;;;6.11;54.41;102673.41;5049951;28;20040;-73
2024/01/20 01:00:12;;;;;;;28.77;11.10;;;;;;;6.40;53.27;102658.94;5032511;28;20021;-73
2024/01/20 01:02:39;;;;;;;30.53;11.83;;;;;;;5.98;55.00;102650.44;5048646;28;20025;-73
2024/01/20 01:05:05;;;;;;;29.13;10.90;;;;;;;6.99;51.81;102650.56;5047737;28;20112;-73
2024/01/20 01:07:32;;;;;;;25.93;11.83;;;;;;;6.32;53.31;102656.84;5042022;28;20052;-72
2024/01/20 01:09:57;;;;;;;30.30;11.73;;;;;;;6.65;52.03;102657.22;5032729;28;20473;-72
2024/01/20 01:12:24;;;;;;;29.53;12.37;;;;;;;6.06;54.45;102659.41;5047536;28;20083;-72
2024/01/20 01:14:49;;;;;;;30.13;11.20;;;;;;;6.48;52.76;102659.19;5044076;28;20037;-72
2024/01/20 01:17:16;;;;;;;21.03;9.47;;;;;;;6.03;54.17;102664.44;5040599;28;20033;-72
2024/01/20 01:19:42;;;;;;;33.47;12.23;;;;;;;6.13;54.49;102660.47;5045726;28;20109;-72
2024/01/20 01:22:07;;;;;;;27.50;10.77;;;;;;;6.04;54.30;102666.22;5042216;28;20112;-72
2024/01/20 01:24:33;;;;;;;34.23;13.67;;;;;;;7.07;51.03;102661.22;5049656;28;20468;-72
2024/01/20 01:26:58;;;;;;;30.37;10.63;;;;;;;6.49;52.75;102660.97;5041120;28;20056;-73
2024/01/20 01:29:23;;;;;;;42.13;12.83;;;;;;;6.33;52.12;102671.63;5049005;28;20404;-72
2024/01/20 01:31:49;;;;;;;36.23;12.77;;;;;;;6.18;52.75;102679.72;5049527;28;20032;-72
2024/01/20 01:34:14;;;;;;;23.13;11.40;;;;;;;5.56;55.42;102678.22;5050146;28;20530;-73
2024/01/20 01:36:40;;;;;;;34.33;12.37;;;;;;;5.85;55.03;102677.56;5048439;28;20032;-73
2024/01/20 01:39:05;;;;;;;31.93;11.27;;;;;;;6.34;52.63;102668.19;5065927;28;20029;-73
2024/01/20 01:41:30;;;;;;;30.30;12.17;;;;;;;6.72;52.18;102671.31;5048208;28;20025;-73
2024/01/20 01:43:56;;;;;;;28.07;12.77;;;;;;;6.60;52.27;102677.81;5044030;28;20022;-73
2024/01/20 01:46:21;;;;;;;27.30;13.07;;;;;;;5.37;56.61;102686.03;5044434;28;20113;-73
2024/01/20 01:48:47;;;;;;;37.40;14.93;;;;;;;5.35;56.19;102673.00;5049348;28;20519;-73
2024/01/20 01:51:12;;;;;;;36.03;11.67;;;;;;;6.03;53.74;102674.81;5052328;28;20021;-72
2024/01/20 01:53:39;;;;;;;28.00;12.60;;;;;;;5.45;56.90;102689.84;5052207;28;20028;-72
2024/01/20 01:56:06;;;;;;;30.57;9.93;;;;;;;5.93;53.94;102682.25;5052449;28;20036;-72
2024/01/20 01:58:32;;;;;;;39.03;13.33;;;;;;;6.76;51.86;102675.78;5051706;28;20489;-72
2024/01/20 02:00:58;;;;;;;40.23;12.63;;;;;;;6.61;52.60;102674.38;5040759;28;20022;-73
2024/01/20 02:03:24;;;;;;;30.03;11.50;;;;;;;7.27;49.66;102682.72;5038956;28;20032;-73
2024/01/20 02:05:49;;;;;;;32.00;13.00;;;;;;;6.68;50.89;102682.44;5037178;28;20425;-72
2024/01/20 02:08:15;;;;;;;36.83;12.27;;;;;;;7.30;49.68;102680.19;5038245;28;20029;-72
2024/01/20 02:10:42;;;;;;;32.17;13.07;;;;;;;6.10;52.50;102677.72;5037311;28;20528;-72
2024/01/20 02:13:09;;;;;;;36.40;12.60;;;;;;;6.36;51.43;102679.53;5037768;28;20072;-73
2024/01/20 02:15:36;;;;;;;29.67;11.70;;;;;;;6.13;52.44;102682.16;5036761;28;20029;-72
2024/01/20 02:18:01;;;;;;;38.47;13.17;;;;;;;6.71;51.91;102685.13;5035072;28;20030;-72
2024/01/20 02:20:26;;;;;;;40.97;12.93;;;;;;;6.54;52.33;102689.69;5034878;28;20031;-72
2024/01/20 02:22:52;;;;;;;33.03;12.97;;;;;;;6.55;51.24;102692.38;5037041;28;20067;-72
2024/01/20 02:25:17;;;;;;;28.53;11.17;;;;;;;6.64;51.20;102684.03;5033758;28;20028;-72
2024/01/20 02:27:43;;;;;;;36.17;13.00;;;;;;;5.94;53.50;102691.78;5038217;28;20537;-72
2024/01/20 02:30:09;;;;;;;28.97;11.13;;;;;;;6.72;52.10;102689.50;5039349;28;20480;-72
2024/01/20 02:32:34;;;;;;;31.97;11.00;;;;;;;6.13;53.33;102692.53;5036361;28;20058;-72
2024/01/20 02:34:59;;;;;;;39.53;13.63;;;;;;;6.48;52.77;102695.56;5040569;28;20100;-72
2024/01/20 02:37:25;;;;;;;33.40;12.27;;;;;;;6.79;50.58;102701.88;5037592;28;20033;-72
2024/01/20 02:39:50;;;;;;;44.37;13.67;;;;;;;7.43;49.20;102702.28;5038287;28;20029;-72
2024/01/20 02:42:16;;;;;;;29.50;11.03;;;;;;;6.59;51.37;102703.75;5040985;28;20028;-72
2024/01/20 02:44:42;;;;;;;37.77;12.80;;;;;;;6.12;52.41;102716.72;5035465;28;20029;-72
2024/01/20 02:47:07;;;;;;;37.70;12.23;;;;;;;6.95;51.03;102706.78;5038857;28;20052;-73
2024/01/20 02:49:33;;;;;;;38.63;14.23;;;;;;;6.54;51.98;102706.19;5037462;28;20537;-73
2024/01/20 02:51:59;;;;;;;38.67;12.30;;;;;;;7.22;50.12;102700.75;5051079;28;20485;-73
2024/01/20 02:54:24;;;;;;;30.87;11.53;;;;;;;7.12;50.26;102706.47;5036762;28;20064;-73
2024/01/20 02:56:50;;;;;;;27.03;10.10;;;;;;;6.51;52.71;102711.28;5035756;28;20075;-73
2024/01/20 02:59:15;;;;;;;35.83;12.80;;;;;;;5.94;54.32;102722.06;5035073;28;20017;-73
2024/01/20 03:01:40;;;;;;;38.70;11.57;;;;;;;6.74;51.38;102713.81;5035043;28;20095;-73
2024/01/20 03:04:06;;;;;;;36.67;12.30;;;;;;;6.42;52.49;102710.94;5035879;28;20018;-72
2024/01/20 03:06:32;;;;;;;29.03;12.40;;;;;;;6.89;51.75;102700.47;5036814;28;20465;-73
2024/01/20 03:08:58;;;;;;;35.27;11.93;;;;;;;6.54;52.30;102695.78;5038432;28;20047;-72
2024/01/20 03:11:23;;;;;;;29.90;11.70;;;;;;;6.16;54.31;102703.03;5035920;28;20025;-73
2024/01/20 03:13:49;;;;;;;26.17;11.80;;;;;;;5.92;55.55;102706.44;5033987;28;20025;-73
2024/01/20 03:16:14;;;;;;;42.83;13.63;;;;;;;6.11;53.06;102694.19;5033460;28;20049;-73
2024/01/20 03:18:40;;;;;;;32.83;11.77;;;;;;;6.63;52.36;102697.81;5039015;28;20171;-72
2024/01/20 03:21:05;;;;;;;43.80;12.80;;;;;;;5.86;54.74;102703.56;5039960;28;20021;-72
2024/01/20 03:23:31;;;;;;;36.73;11.80;;;;;;;6.33;53.95;102700.19;5035869;28;20478;-73
2024/01/20 03:25:56;;;;;;;22.97;10.83;;;;;;;6.66;51.19;102710.06;5038748;28;20060;-73
2024/01/20 03:28:22;;;;;;;24.03;10.07;;;;;;;6.76;51.66;102704.38;5033907;28;20036;-72
2024/01/20 03:30:47;;;;;;;31.10;12.10;;;;;;;5.81;54.59;102710.31;5033216;28;20032;-73
2024/01/20 03:33:13;;;;;;;36.13;9.90;;;;;;;6.57;52.67;102711.50;5037824;28;20057;-73
2024/01/20 03:35:38;;;;;;;37.30;11.17;;;;;;;6.26;52.53;102705.19;5034730;28;20388;-73
2024/01/20 03:38:04;;;;;;;28.33;11.03;;;;;;;6.87;51.40;102694.31;5048858;28;20027;-73
2024/01/20 03:40:30;;;;;;;28.17;12.13;;;;;;;6.59;51.63;102699.44;5037358;28;20104;-73
2024/01/20 03:42:55;;;;;;;31.20;10.33;;;;;;;5.91;55.23;102716.75;5034445;28;20413;-73
2024/01/20 03:45:20;;;;;;;50.43;12.77;;;;;;;5.69;54.69;102718.50;5052002;28;20068;-73
2024/01/20 03:47:46;;;;;;;33.13;12.60;;;;;;;6.30;53.11;102710.47;5040012;28;20048;-73
2024/01/20 03:50:11;;;;;;;27.13;10.07;;;;;;;6.95;50.58;102711.06;5039753;28;20028;-73
2024/01/20 03:52:37;;;;;;;33.60;11.27;;;;;;;6.41;52.51;102712.63;5038729;28;20021;-73
2024/01/20 03:55:02;;;;;;;34.90;14.13;;;;;;;6.56;52.99;102722.69;5038140;28;20023;-73
2024/01/20 03:57:29;;;;;;;31.87;11.40;;;;;;;6.42;52.32;102731.72;5035191;28;20478;-73
2024/01/20 03:59:54;;;;;;;28.60;10.90;;;;;;;6.31;53.04;102725.25;5036697;28;20127;-73
2024/01/20 04:02:19;;;;;;;30.43;10.20;;;;;;;6.14;52.91;102720.28;5031886;28;20183;-73
2024/01/20 04:04:45;;;;;;;24.23;8.53;;;;;;;5.68;56.47;102732.28;5036425;28;20029;-73
2024/01/20 04:07:10;;;;;;;33.03;10.50;;;;;;;6.02;55.18;102732.78;5037234;28;20055;-73
2024/01/20 04:09:36;;;;;;;27.87;10.90;;;;;;;5.31;56.65;102732.47;5033007;28;20032;-73
2024/01/20 04:12:01;;;;;;;26.80;9.27;;;;;;;6.28;53.75;102724.28;5039851;28;20029;-73
2024/01/20 04:14:27;;;;;;;24.20;10.10;;;;;;;5.84;54.98;102720.81;5034576;28;20056;-74
2024/01/20 04:16:52;;;;;;;28.73;9.93;;;;;;;6.41;53.99;102719.53;5035751;28;20025;-73
2024/01/20 04:19:18;;;;;;;35.23;10.57;;;;;;;5.36;56.37;102721.47;5033796;28;20026;-73
2024/01/20 04:21:43;;;;;;;27.20;11.47;;;;;;;5.94;54.91;102725.53;5034746;28;20029;-73
2024/01/20 04:24:09;;;;;;;26.73;11.10;;;;;;;6.23;53.32;102724.94;5034041;28;20099;-74
2024/01/20 04:26:34;;;;;;;30.53;10.90;;;;;;;5.82;55.24;102722.44;5036991;28;20025;-73
2024/01/20 04:29:00;;;;;;;24.70;9.43;;;;;;;5.91;54.63;102727.13;5035034;28;20559;-73
2024/01/20 04:31:25;;;;;;;35.13;12.17;;;;;;;6.23;53.59;102724.94;5031252;28;20029;-73
2024/01/20 04:33:53;;;;;;;24.57;10.83;;;;;;;6.05;54.71;102719.94;5035065;28;20049;-73
2024/01/20 04:36:19;;;;;;;31.63;10.53;;;;;;;6.11;54.24;102727.94;5032180;28;20358;-73
2024/01/20 04:38:44;;;;;;;20.33;8.27;;;;;;;5.87;54.72;102722.66;5031478;28;20084;-73
2024/01/20 04:41:10;;;;;;;34.10;10.57;;;;;;;5.76;55.15;102723.09;5035724;28;20029;-73
2024/01/20 04:43:35;;;;;;;29.13;10.13;;;;;;;6.45;53.55;102721.44;5034715;28;20025;-73
2024/01/20 04:46:01;;;;;;;29.80;10.50;;;;;;;6.28;53.92;102724.28;5037796;28;20032;-73
2024/01/20 04:48:26;;;;;;;32.00;11.97;;;;;;;6.01;53.74;102733.63;5038287;28;20534;-73
2024/01/20 04:50:52;;;;;;;26.07;9.43;;;;;;;6.48;52.50;102725.84;5040886;28;20029;-73
2024/01/20 04:53:17;;;;;;;22.87;10.63;;;;;;;6.04;53.88;102738.91;5032908;28;20079;-73
2024/01/20 04:55:42;;;;;;;27.03;10.27;;;;;;;6.03;53.29;102731.94;5032915;28;20108;-73
2024/01/20 04:58:08;;;;;;;32.47;10.03;;;;;;;6.93;50.61;102726.63;5034884;28;20493;-73
2024/01/20 05:00:35;;;;;;;26.10;10.00;;;;;;;7.10;50.61;102734.13;5035535;28;20029;-74
2024/01/20 05:03:00;;;;;;;32.37;9.57;;;;;;;5.95;53.41;102750.69;5032194;28;20024;-73
2024/01/20 05:05:25;;;;;;;30.80;10.37;;;;;;;6.20;52.62;102741.28;5036101;28;20029;-74
2024/01/20 05:07:51;;;;;;;23.80;8.90;;;;;;;6.34;52.61;102747.00;5036414;28;20029;-74
2024/01/20 05:10:16;;;;;;;29.30;9.93;;;;;;;7.27;49.97;102730.41;5034512;28;20545;-73
2024/01/20 05:12:41;;;;;;;19.10;8.60;;;;;;;5.86;52.74;102745.09;5034132;28;20080;-73
2024/01/20 05:15:11;;;;;;;27.17;10.67;;;;;;;6.09;53.52;102750.38;5034504;28;20044;-73
2024/01/20 05:17:37;;;;;;;24.60;9.30;;;;;;;6.23;51.32;102746.59;5049153;28;20037;-73
2024/01/20 05:20:03;;;;;;;22.07;9.67;;;;;;;6.36;52.60;102754.84;5035119;28;20034;-73
2024/01/20 05:22:29;;;;;;;37.23;11.13;;;;;;;6.08;52.71;102753.78;5032706;28;20108;-73
2024/01/20 05:24:54;;;;;;;28.43;9.83;;;;;;;6.14;52.16;102751.44;5038623;28;20375;-73
2024/01/20 05:27:19;;;;;;;22.10;9.17;;;;;;;6.10;53.49;102754.75;5038356;28;20026;-73
2024/01/20 05:29:45;;;;;;;29.90;9.97;;;;;;;6.68;51.52;102756.06;5038364;28;20515;-73
2024/01/20 05:32:11;;;;;;;26.07;10.17;;;;;;;6.10;53.07;102757.34;5039059;28;20033;-73
2024/01/20 05:34:36;;;;;;;23.43;9.37;;;;;;;6.24;52.65;102763.94;5037242;28;20551;-74
2024/01/20 05:37:01;;;;;;;31.27;11.07;;;;;;;6.90;50.37;102773.31;5039082;28;20492;-73
2024/01/20 05:39:27;;;;;;;30.53;9.50;;;;;;;6.06;52.57;102778.81;5036777;28;20041;-73
2024/01/20 05:41:52;;;;;;;27.83;11.10;;;;;;;6.67;50.80;102775.06;5036081;28;20016;-73
2024/01/20 05:44:17;;;;;;;33.13;10.83;;;;;;;5.94;52.92;102782.66;5049869;28;20063;-73
2024/01/20 05:46:43;;;;;;;29.67;9.43;;;;;;;6.48;51.91;102780.41;5050899;28;20079;-73
2024/01/20 05:49:08;;;;;;;28.30;10.03;;;;;;;6.61;50.84;102775.75;5050729;28;20589;-73
2024/01/20 05:51:33;;;;;;;25.07;9.40;;;;;;;6.72;50.55;102777.88;5052438;28;20610;-73
2024/01/20 05:53:59;;;;;;;30.00;8.27;;;;;;;6.55;50.91;102775.53;5051546;28;20040;-74
2024/01/20 05:56:24;;;;;;;27.83;9.13;;;;;;;6.00;53.24;102776.84;5052118;28;20117;-73
2024/01/20 05:58:50;;;;;;;25.73;10.83;;;;;;;6.28;51.79;102776.22;5052517;28;20465;-73
2024/01/20 06:01:16;;;;;;;25.13;8.73;;;;;;;5.36;55.28;102788.03;5052443;28;20497;-73
2024/01/20 06:03:41;;;;;;;29.50;9.30;;;;;;;6.06;53.45;102773.63;5050659;28;20037;-73
2024/01/20 06:06:06;;;;;;;32.43;9.20;;;;;;;6.43;51.65;102780.25;5051789;28;20032;-74
2024/01/20 06:08:32;;;;;;;21.13;6.70;;;;;;;5.98;51.65;102782.81;5048425;28;20660;-73
2024/01/20 06:10:57;;;;;;;25.17;9.53;;;;;;;6.26;51.50;102783.09;5050372;28;20021;-73
2024/01/20 06:13:23;;;;;;;31.17;10.03;;;;;;;6.39;52.93;102791.34;5051013;28;20219;-73
2024/01/20 06:15:48;;;;;;;24.57;7.03;;;;;;;5.56;53.58;102797.53;5051182;28;20040;-73
2024/01/20 06:18:13;;;;;;;28.90;8.43;;;;;;;6.26;53.05;102793.47;5050581;28;20029;-74
2024/01/20 06:20:39;;;;;;;33.43;10.50;;;;;;;6.56;51.69;102792.88;5048925;28;20078;-74
2024/01/20 06:23:04;;;;;;;29.63;9.00;;;;;;;6.74;52.13;102792.66;5050490;28;20033;-73
2024/01/20 06:25:29;;;;;;;25.53;9.60;;;;;;;6.52;51.28;102790.97;5052327;28;20061;-73
2024/01/20 06:27:55;;;;;;;32.67;8.40;;;;;;;6.68;50.61;102796.78;5049572;28;20637;-73
2024/01/20 06:30:20;;;;;;;25.67;8.87;;;;;;;6.38;51.88;102797.38;5050591;28;20090;-73
2024/01/20 06:32:46;;;;;;;16.83;7.40;;;;;;;6.78;51.01;102794.53;5049774;28;20436;-73
2024/01/20 06:35:11;;;;;;;25.93;8.70;;;;;;;5.87;52.78;102798.81;5051806;28;20025;-73
2024/01/20 06:37:37;;;;;;;23.00;8.13;;;;;;;5.76;53.06;102805.28;5047924;28;20032;-72
2024/01/20 06:40:02;;;;;;;20.23;7.87;;;;;;;5.69;53.57;102803.25;5049771;28;20481;-73
2024/01/20 06:42:30;;;;;;;22.47;9.10;;;;;;;6.41;52.15;102793.16;5048412;28;20029;-72
2024/01/20 06:44:56;;;;;;;28.37;8.70;;;;;;;5.82;53.42;102787.34;5046750;28;20029;-73
2024/01/20 06:47:21;;;;;;;26.60;8.47;;;;;;;5.74;54.21;102786.13;5049026;28;20464;-73
2024/01/20 06:49:49;;;;;;;28.90;8.07;;;;;;;5.36;55.18;102788.03;5049893;28;20032;-72
2024/01/20 06:52:15;;;;;;;24.73;8.90;;;;;;;5.71;54.48;102791.22;5047495;28;20039;-73
2024/01/20 06:54:40;;;;;;;21.63;8.77;;;;;;;6.27;52.25;102784.84;5049821;28;20481;-73
2024/01/20 06:57:06;;;;;;;23.40;8.33;;;;;;;5.99;52.16;102794.97;5049978;28;20120;-73
2024/01/20 06:59:31;;;;;;;24.30;9.00;;;;;;;5.68;53.63;102806.66;5050282;28;20036;-73
2024/01/20 07:01:57;;;;;;;26.70;9.70;;;;;;;5.64;54.84;102810.81;5051232;28;20116;-73
2024/01/20 07:04:22;;;;;;;29.07;8.97;;;;;;;5.91;54.53;102808.47;5051582;28;20025;-72
2024/01/20 07:06:47;;;;;;;25.40;8.33;;;;;;;5.59;54.65;102809.72;5048659;28;20018;-73
2024/01/20 07:09:13;;;;;;;30.97;10.30;;;;;;;5.67;54.30;102804.88;5038592;28;20036;-73
2024/01/20 07:11:39;;;;;;;27.30;10.30;;;;;;;4.70;56.12;102811.94;5035826;28;20029;-74
2024/01/20 07:14:05;;;;;;;36.60;12.27;;;;;;;5.37;56.22;102813.13;5037985;28;20382;-74
2024/01/20 07:16:31;;;;;;;24.73;10.40;;;;;;;6.03;54.11;102815.03;5039401;28;20030;-74
2024/01/20 07:18:56;;;;;;;33.83;10.77;;;;;;;5.44;56.16;102822.97;5036641;28;20371;-74
2024/01/20 07:21:21;;;;;;;34.60;12.33;;;;;;;6.19;53.61;102814.81;5038137;28;20037;-74
2024/01/20 07:23:47;;;;;;;34.43;9.80;;;;;;;5.53;55.54;102822.47;5039766;28;20026;-74
2024/01/20 07:26:12;;;;;;;24.10;9.23;;;;;;;5.70;54.82;102816.28;5036527;28;20608;-74
2024/01/20 07:28:38;;;;;;;29.63;11.10;;;;;;;5.85;54.18;102816.03;5035643;28;20517;-74
2024/01/20 07:31:03;;;;;;;32.83;10.80;;;;;;;5.67;53.71;102815.25;5041030;28;20037;-74
2024/01/20 07:33:29;;;;;;;37.20;10.00;;;;;;;5.21;56.55;102820.25;5034198;28;20835;-74
2024/01/20 07:35:54;;;;;;;30.87;9.83;;;;;;;5.74;55.23;102818.19;5038430;28;20025;-73
2024/01/20 07:38:20;;;;;;;28.17;10.83;;;;;;;5.82;54.63;102809.81;5034543;28;20481;-74
2024/01/20 07:40:45;;;;;;;21.67;8.60;;;;;;;5.60;54.41;102804.63;5033735;28;20056;-73
2024/01/20 07:43:11;;;;;;;29.27;10.70;;;;;;;5.86;54.21;102814.31;5035532;28;20500;-74
2024/01/20 07:45:38;;;;;;;39.07;13.87;;;;;;;5.86;56.43;102809.13;5037109;28;20123;-74
2024/01/20 07:48:03;;;;;;;28.10;10.53;;;;;;;6.13;53.83;102817.19;5044191;28;20172;-74
2024/01/20 07:50:29;;;;;;;43.77;13.63;;;;;;;6.25;53.90;102811.56;5035234;28;20068;-74
2024/01/20 07:52:54;;;;;;;29.97;9.97;;;;;;;5.88;55.20;102821.34;5040438;28;20029;-74
2024/01/20 07:55:20;;;;;;;44.80;12.60;;;;;;;5.53;55.87;102827.66;5031470;28;20021;-75
2024/01/20 07:57:45;;;;;;;46.87;13.30;;;;;;;6.50;53.90;102834.22;5048135;28;20400;-74
2024/01/20 08:00:11;;;;;;;26.10;10.10;;;;;;;5.59;55.97;102844.38;5065053;28;20028;-74
2024/01/20 08:02:39;;;;;;;29.83;10.13;;;;;;;5.80;56.90;102842.59;5039600;28;20033;-74
2024/01/20 08:05:06;;;;;;;27.37;11.50;;;;;;;6.45;53.57;102831.41;5049489;28;20095;-74
2024/01/20 08:07:32;;;;;;;31.07;12.13;;;;;;;6.70;53.22;102828.88;5049495;28;20024;-74
2024/01/20 08:09:57;;;;;;;34.40;10.57;;;;;;;7.14;51.45;102824.44;5066028;28;20060;-74
2024/01/20 08:12:23;;;;;;;31.57;11.63;;;;;;;6.84;51.95;102840.72;5049454;28;20029;-76
2024/01/20 08:14:48;;;;;;;24.20;9.13;;;;;;;5.56;55.84;102844.25;5050261;28;20123;-74
2024/01/20 08:17:14;;;;;;;32.60;11.33;;;;;;;6.42;53.43;102841.69;5049343;28;20469;-74
2024/01/20 08:19:39;;;;;;;41.07;14.50;;;;;;;6.96;52.13;102842.84;5050474;28;20500;-74
2024/01/20 08:22:06;;;;;;;34.13;12.00;;;;;;;5.70;56.45;102852.63;5051010;28;20024;-75
2024/01/20 08:24:31;;;;;;;33.93;11.03;;;;;;;5.17;58.56;102859.81;5050666;28;20037;-75
2024/01/20 08:26:57;;;;;;;40.70;13.97;;;;;;;5.53;57.84;102854.47;5051429;28;20036;-75
2024/01/20 08:29:22;;;;;;;35.57;12.17;;;;;;;5.76;56.32;102862.38;5050831;28;20465;-75
2024/01/20 08:31:48;;;;;;;40.73;12.73;;;;;;;6.10;55.04;102858.63;5050694;28;20028;-75
2024/01/20 08:34:13;;;;;;;41.30;13.30;;;;;;;6.12;55.23;102856.94;5051154;28;20028;-74
2024/01/20 08:36:39;;;;;;;31.03;12.10;;;;;;;5.87;56.59;102865.41;5045300;28;20025;-75
2024/01/20 08:39:04;;;;;;;34.27;12.63;;;;;;;5.73;57.18;102868.31;5030137;28;20029;-74
2024/01/20 08:41:29;;;;;;;35.20;12.47;;;;;;;6.17;56.55;102872.69;5036947;28;20104;-75
2024/01/20 08:43:55;;;;;;;35.87;11.97;;;;;;;6.00;57.24;102866.84;5048980;28;20037;-74
2024/01/20 08:46:20;;;;;;;30.67;11.17;;;;;;;6.52;54.03;102875.84;5046926;28;20108;-74
2024/01/20 08:48:45;;;;;;;33.93;12.93;;;;;;;6.36;55.69;102885.63;5047075;28;20048;-74
2024/01/20 08:51:11;;;;;;;33.90;10.23;;;;;;;5.81;57.42;102876.44;5050917;28;20059;-75
2024/01/20 08:53:37;;;;;;;39.50;13.63;;;;;;;5.71;59.29;102889.81;5049579;28;20490;-75
2024/01/20 08:56:03;;;;;;;33.63;11.50;;;;;;;6.60;55.14;102871.84;5032440;28;20056;-75
2024/01/20 08:58:29;;;;;;;36.97;11.83;;;;;;;5.49;60.03;102875.03;5046485;28;20485;-75
2024/01/20 09:00:55;;;;;;;33.53;12.43;;;;;;;6.42;56.81;102878.06;5055227;28;20586;-74
2024/01/20 09:03:21;;;;;;;38.33;12.33;;;;;;;6.73;55.21;102873.19;5056054;28;20067;-75
2024/01/20 09:05:46;;;;;;;36.70;11.83;;;;;;;7.04;54.45;102879.56;5054960;28;20033;-74
2024/01/20 09:08:11;;;;;;;31.97;10.83;;;;;;;6.21;56.38;102872.91;5055597;28;20123;-75
2024/01/20 09:10:37;;;;;;;30.10;12.03;;;;;;;6.87;53.92;102877.22;5054221;28;20035;-75
2024/01/20 09:13:04;;;;;;;31.23;11.00;;;;;;;6.05;56.90;102867.91;5053698;28;20041;-74
2024/01/20 09:15:29;;;;;;;23.00;8.37;;;;;;;6.34;55.64;102876.00;5056409;28;20498;-74
2024/01/20 09:17:54;;;;;;;28.27;10.43;;;;;;;6.15;56.30;102883.03;5057216;28;20049;-74
2024/01/20 09:20:20;;;;;;;29.30;10.80;;;;;;;5.86;56.99;102885.28;5055344;28;20028;-75
2024/01/20 09:22:46;;;;;;;37.60;11.73;;;;;;;5.87;57.10;102892.25;5055783;28;20115;-75
2024/01/20 09:25:12;;;;;;;32.93;10.47;;;;;;;6.37;57.79;102891.72;5055698;28;20031;-74
2024/01/20 09:27:37;;;;;;;31.07;11.30;;;;;;;7.50;52.08;102883.84;5070834;28;20067;-74
2024/01/20 09:30:04;;;;;;;35.83;10.53;;;;;;;7.09;53.65;102888.44;5057211;28;20025;-74
2024/01/20 09:32:33;;;;;;;35.10;13.43;;;;;;;6.64;54.20;102891.03;5055541;28;20021;-75
2024/01/20 09:34:59;;;;;;;28.80;9.50;;;;;;;7.43;53.04;102894.84;5056533;28;20368;-74
2024/01/20 09:37:24;;;;;;;36.93;11.10;;;;;;;7.68;52.03;102890.50;5057471;28;20033;-75
2024/01/20 09:39:50;;;;;;;25.57;9.20;;;;;;;6.45;54.70;102887.69;5055652;28;20032;-75
2024/01/20 09:42:16;;;;;;;29.07;9.53;;;;;;;7.76;51.60;102884.75;5056939;28;20036;-75
2024/01/20 09:44:42;;;;;;;28.97;10.30;;;;;;;7.17;52.35;102889.59;5054237;28;20119;-75
2024/01/20 09:47:09;;;;;;;28.97;10.43;;;;;;;7.25;53.94;102890.75;5055281;28;20086;-75
2024/01/20 09:49:35;;;;;;;27.80;10.33;;;;;;;7.59;52.12;102881.53;5055239;28;20086;-75
2024/01/20 09:52:07;;;;;;;32.50;11.57;;;;;;;8.47;50.11;102891.41;5053029;28;20428;-75
2024/01/20 09:54:36;;;;;;;27.30;9.80;;;;;;;7.49;51.52;102884.66;5055156;28;20032;-75
2024/01/20 09:57:02;;;;;;;33.17;11.40;;;;;;;8.35;49.85;102886.66;5054822;28;20399;-75
2024/01/20 09:59:29;;;;;;;24.63;10.27;;;;;;;7.74;50.78;102886.41;5056691;28;20120;-76
2024/01/20 10:01:55;;;;;;;23.37;9.70;;;;;;;8.40;48.89;102894.63;5056101;28;20063;-75
2024/01/20 10:04:23;;;;;;;34.87;9.63;;;;;;;8.66;48.87;102898.97;5057081;28;20477;-75
2024/01/20 10:06:51;;;;;;;28.77;10.13;;;;;;;7.53;50.69;102904.75;5054668;28;20116;-75
2024/01/20 10:09:17;;;;;;;34.13;9.97;;;;;;;8.57;49.13;102914.34;5055598;28;20025;-76
2024/01/20 10:11:42;;;;;;;29.27;8.57;;;;;;;8.16;49.60;102911.25;5052110;28;20539;-75
2024/01/20 10:14:08;;;;;;;27.90;9.27;;;;;;;7.43;51.32;102913.97;5053084;28;20068;-76
2024/01/20 10:16:39;;;;;;;24.43;9.57;;;;;;;7.54;52.08;102919.56;5049125;28;20047;-76
2024/01/20 10:19:05;;;;;;;33.10;10.85;;;;;;;6.89;52.78;102922.34;5049249;28;20028;-75
2024/01/20 10:21:38;;;;;;;32.93;12.10;;;;;;;7.74;52.01;102916.75;5043315;28;20485;-75
2024/01/20 10:24:04;;;;;;;26.87;9.30;;;;;;;8.06;49.95;102904.81;5051118;28;20025;-75
2024/01/20 10:26:29;;;;;;;29.20;9.47;;;;;;;8.06;49.50;102898.75;5052880;28;20032;-76
2024/01/20 10:28:55;;;;;;;24.27;8.90;;;;;;;8.89;47.51;102901.41;5052836;28;20029;-76
2024/01/20 10:31:21;;;;;;;36.17;12.57;;;;;;;8.62;47.37;102910.13;5046611;28;20060;-76
2024/01/20 10:33:48;;;;;;;29.77;10.83;;;;;;;8.29;49.11;102905.59;5050484;28;20508;-76
2024/01/20 10:36:17;;;;;;;33.57;11.30;;;;;;;8.51;48.67;102910.66;5048353;28;20030;-76
2024/01/20 10:38:49;;;;;;;25.90;11.07;;;;;;;8.24;48.89;102917.59;5050818;28;20032;-76
2024/01/20 10:41:16;;;;;;;29.75;8.63;;;;;;;7.29;50.89;102912.56;5052180;28;20029;-76
2024/01/20 10:43:48;;;;;;;19.13;8.60;;;;;;;7.83;50.33;102906.69;5051591;28;20053;-76
2024/01/20 10:46:22;;;;;;;29.33;10.00;;;;;;;8.95;47.68;102917.22;5049949;28;20022;-76
2024/01/20 10:48:52;;;;;;;26.60;10.33;;;;;;;9.35;46.85;102912.28;5035745;28;20538;-77
2024/01/20 10:51:24;;;;;;;24.53;8.47;;;;;;;8.70;48.34;102914.72;5043278;28;20472;-76
2024/01/20 10:53:51;;;;;;;28.80;9.77;;;;;;;8.52;48.52;102915.91;5050499;28;20036;-76
2024/01/20 10:56:17;;;;;;;31.20;9.87;;;;;;;8.98;48.25;102911.22;5048843;28;20664;-76
2024/01/20 10:58:50;;;;;;;30.20;8.83;;;;;;;8.89;47.52;102913.53;5049948;28;20063;-76
2024/01/20 11:01:16;;;;;;;29.27;9.73;;;;;;;9.82;45.30;102906.59;5040868;28;20530;-76
2024/01/20 11:03:42;;;;;;;21.93;8.87;;;;;;;9.83;45.18;102900.53;5050052;28;20029;-76
2024/01/20 11:06:18;;;;;;;25.20;9.90;;;;;;;10.34;45.37;102904.41;5051103;28;20029;-76
2024/01/20 11:08:49;;;;;;;22.07;9.60;;;;;;;8.73;47.37;102917.44;5047714;28;20025;-76
2024/01/20 11:11:14;;;;;;;26.23;9.27;;;;;;;8.73;47.35;102905.25;5050862;28;20037;-76
2024/01/20 11:13:39;;;;;;;27.43;9.87;;;;;;;8.98;47.34;102914.72;5048233;28;20532;-75